createdAt,value
2023-01-06T00:01:13.454Z,100.00
2023-01-06T00:03:43.049Z,100.00
2023-01-06T00:06:11.885Z,100.00
2023-01-06T00:08:40.590Z,100.00
2023-01-06T00:11:08.796Z,100.00
2023-01-06T00:13:37.165Z,100.00
2023-01-06T00:16:07.231Z,100.00
2023-01-06T00:18:35.614Z,100.00
2023-01-06T00:21:05.521Z,100.00
2023-01-06T00:23:34.498Z,100.00
2023-01-06T00:26:02.677Z,100.00
2023-01-06T00:28:31.271Z,100.00
2023-01-06T00:30:59.351Z,100.00
2023-01-06T00:33:27.576Z,100.00
2023-01-06T00:35:59.737Z,100.00
2023-01-06T00:38:29.339Z,100.00
2023-01-06T00:40:57.190Z,100.00
2023-01-06T00:43:25.302Z,100.00
2023-01-06T00:45:53.246Z,100.00
2023-01-06T00:48:21.458Z,100.00
2023-01-06T00:50:49.307Z,100.00
2023-01-06T00:53:20.883Z,100.00
2023-01-06T00:55:50.121Z,100.00
2023-01-06T00:58:18.257Z,100.00
2023-01-06T01:00:46.103Z,100.00
2023-01-06T01:03:14.328Z,100.00
2023-01-06T01:05:42.220Z,100.00
2023-01-06T01:08:10.392Z,100.00
2023-01-06T01:10:38.273Z,100.00
2023-01-06T01:13:07.804Z,100.00
2023-01-06T01:15:35.658Z,100.00
2023-01-06T01:18:03.852Z,100.00
2023-01-06T01:20:31.858Z,100.00
2023-01-06T01:23:00.167Z,100.00
2023-01-06T01:25:28.154Z,100.00
2023-01-06T01:27:56.323Z,100.00
2023-01-06T01:30:25.532Z,100.00
2023-01-06T01:32:53.644Z,100.00
2023-01-06T01:35:21.482Z,100.00
2023-01-06T01:37:49.632Z,100.00
2023-01-06T01:40:17.724Z,100.00
2023-01-06T01:42:45.905Z,100.00
2023-01-06T01:45:18.907Z,100.00
2023-01-06T01:47:50.725Z,100.00
2023-01-06T01:50:22.583Z,100.00
2023-01-06T01:52:52.073Z,100.00
2023-01-06T01:55:20.680Z,100.00
2023-01-06T01:57:51.260Z,100.00
2023-01-06T02:00:20.178Z,100.00
2023-01-06T02:02:49.921Z,100.00
2023-01-06T02:05:27.147Z,100.00
2023-01-06T02:07:57.424Z,100.00
2023-01-06T02:10:26.014Z,100.00
2023-01-06T02:12:57.157Z,100.00
2023-01-06T02:15:25.649Z,99.09
2023-01-06T02:18:00.710Z,98.72
2023-01-06T02:20:34.977Z,100.00
2023-01-06T02:23:25.893Z,100.00
2023-01-06T02:26:15.047Z,100.00
2023-01-06T02:28:59.129Z,100.00
2023-01-06T02:31:47.150Z,100.00
2023-01-06T02:34:20.492Z,100.00
2023-01-06T02:36:54.937Z,100.00
2023-01-06T02:39:28.848Z,100.00
2023-01-06T02:42:01.746Z,100.00
2023-01-06T02:44:32.922Z,100.00
2023-01-06T02:47:08.232Z,100.00
2023-01-06T02:49:43.397Z,100.00
2023-01-06T02:52:15.244Z,100.00
2023-01-06T02:54:46.815Z,100.00
2023-01-06T02:57:18.239Z,100.00
2023-01-06T02:59:50.391Z,99.44
2023-01-06T03:02:19.659Z,95.74
2023-01-06T03:04:51.176Z,96.99
2023-01-06T03:07:20.057Z,95.01
2023-01-06T03:09:48.593Z,97.96
2023-01-06T03:12:19.400Z,97.36
2023-01-06T03:14:50.261Z,94.35
2023-01-06T03:17:18.583Z,95.88
2023-01-06T03:19:47.065Z,96.01
2023-01-06T03:22:17.334Z,95.11
2023-01-06T03:24:46.410Z,95.11
2023-01-06T03:27:14.550Z,97.41
2023-01-06T03:29:42.685Z,96.29
2023-01-06T03:32:14.451Z,96.25
2023-01-06T03:34:52.526Z,98.45
2023-01-06T03:37:27.661Z,97.15
2023-01-06T03:39:59.606Z,96.57
2023-01-06T03:42:49.806Z,91.42
2023-01-06T03:45:32.792Z,90.09
2023-01-06T03:48:06.196Z,91.14
2023-01-06T03:50:38.151Z,93.78
2023-01-06T03:53:14.835Z,90.18
2023-01-06T03:55:47.586Z,90.11
2023-01-06T03:58:17.363Z,89.25
2023-01-06T04:00:45.512Z,89.21
2023-01-06T04:03:15.176Z,89.61
2023-01-06T04:05:43.364Z,90.72
2023-01-06T04:08:12.942Z,91.01
2023-01-06T04:10:41.259Z,91.84
2023-01-06T04:13:08.206Z,93.86
2023-01-06T04:15:36.420Z,92.41
2023-01-06T04:18:04.351Z,93.89
2023-01-06T04:20:32.582Z,95.56
2023-01-06T04:23:00.521Z,96.47
2023-01-06T04:25:31.550Z,96.59
2023-01-06T04:27:59.661Z,94.85
2023-01-06T04:30:27.823Z,95.26
2023-01-06T04:32:56.165Z,93.28
2023-01-06T04:35:24.328Z,92.07
2023-01-06T04:37:52.236Z,92.72
2023-01-06T04:40:22.940Z,93.48
2023-01-06T04:43:07.414Z,92.65
2023-01-06T04:45:36.423Z,92.19
2023-01-06T04:48:04.400Z,94.06
2023-01-06T04:50:32.603Z,91.55
2023-01-06T04:53:00.427Z,91.62
2023-01-06T04:55:28.558Z,94.61
2023-01-06T04:57:57.930Z,92.36
2023-01-06T05:00:26.554Z,95.57
2023-01-06T05:02:54.571Z,91.87
2023-01-06T05:05:23.124Z,91.01
2023-01-06T05:07:54.300Z,90.59
2023-01-06T05:10:22.690Z,93.90
2023-01-06T05:12:50.701Z,92.75
2023-01-06T05:15:20.597Z,93.19
2023-01-06T05:17:48.511Z,91.66
2023-01-06T05:20:27.653Z,94.63
2023-01-06T05:25:43.247Z,92.73
2023-01-06T05:28:15.112Z,92.45
2023-01-06T05:30:44.514Z,92.08
2023-01-06T05:33:13.015Z,95.20
2023-01-06T05:35:40.990Z,94.72
2023-01-06T05:38:09.146Z,95.64
2023-01-06T05:40:37.039Z,96.07
2023-01-06T05:43:05.222Z,95.09
2023-01-06T05:45:33.152Z,92.42
2023-01-06T05:48:03.319Z,92.43
2023-01-06T05:50:31.163Z,92.20
2023-01-06T05:53:00.033Z,89.77
2023-01-06T05:55:27.948Z,89.66
2023-01-06T05:57:56.237Z,90.59
2023-01-06T06:00:24.264Z,90.37
2023-01-06T06:02:52.511Z,91.36
2023-01-06T06:05:21.979Z,93.21
2023-01-06T06:07:53.722Z,93.53
2023-01-06T06:10:21.854Z,92.90
2023-01-06T06:12:51.632Z,91.57
2023-01-06T06:15:19.508Z,91.00
2023-01-06T06:17:47.731Z,90.50
2023-01-06T06:20:15.763Z,90.38
2023-01-06T06:22:45.506Z,89.90
2023-01-06T06:25:14.345Z,92.45
2023-01-06T06:27:42.567Z,93.19
2023-01-06T06:30:10.722Z,92.73
2023-01-06T06:32:38.956Z,92.77
2023-01-06T06:35:07.528Z,93.58
2023-01-06T06:37:35.733Z,92.00
2023-01-06T06:40:05.637Z,92.36
2023-01-06T06:42:33.869Z,95.29
2023-01-06T06:45:01.704Z,93.72
2023-01-06T06:47:29.914Z,94.66
2023-01-06T06:49:57.815Z,94.94
2023-01-06T06:52:26.242Z,95.37
2023-01-06T06:54:54.167Z,95.82
2023-01-06T06:57:23.777Z,96.06
2023-01-06T06:59:51.758Z,93.78
2023-01-06T07:02:20.527Z,94.20
2023-01-06T07:04:48.530Z,95.35
2023-01-06T07:07:16.734Z,95.27
2023-01-06T07:09:44.582Z,95.05
2023-01-06T07:12:14.539Z,95.52
2023-01-06T07:14:43.932Z,93.97
2023-01-06T07:17:12.088Z,94.27
2023-01-06T07:19:39.992Z,95.00
2023-01-06T07:22:08.134Z,95.65
2023-01-06T07:24:36.211Z,95.46
2023-01-06T07:27:04.620Z,95.99
2023-01-06T07:29:33.016Z,95.54
2023-01-06T07:32:02.609Z,95.29
2023-01-06T07:34:30.790Z,95.45
2023-01-06T07:36:59.051Z,94.27
2023-01-06T07:39:26.903Z,94.66
2023-01-06T07:41:55.053Z,95.09
2023-01-06T07:44:23.050Z,94.77
2023-01-06T07:46:51.221Z,92.75
2023-01-06T07:49:20.514Z,93.22
2023-01-06T07:51:48.667Z,92.82
2023-01-06T07:54:16.644Z,93.24
2023-01-06T07:56:45.266Z,93.56
2023-01-06T07:59:13.143Z,94.80
2023-01-06T08:01:41.657Z,94.01
2023-01-06T08:04:09.659Z,93.11
2023-01-06T08:06:41.628Z,92.95
2023-01-06T08:09:09.534Z,93.33
2023-01-06T08:11:37.671Z,92.54
2023-01-06T08:14:05.599Z,92.69
2023-01-06T08:16:34.088Z,91.80
2023-01-06T08:19:02.025Z,92.33
2023-01-06T08:21:30.376Z,91.97
2023-01-06T08:23:59.775Z,92.01
2023-01-06T08:26:27.944Z,91.60
2023-01-06T08:28:55.845Z,92.53
2023-01-06T08:31:24.408Z,92.91
2023-01-06T08:33:53.671Z,92.66
2023-01-06T08:36:23.240Z,92.62
2023-01-06T08:38:51.733Z,93.10
2023-01-06T08:41:21.599Z,93.03
2023-01-06T08:43:49.816Z,93.54
2023-01-06T08:46:19.411Z,94.04
2023-01-06T08:48:47.897Z,95.80
2023-01-06T08:51:18.257Z,96.60
2023-01-06T08:53:47.601Z,97.96
2023-01-06T08:56:16.600Z,98.10
2023-01-06T08:58:45.848Z,97.92
2023-01-06T09:01:18.078Z,98.51
2023-01-06T09:03:46.205Z,99.01
2023-01-06T09:06:14.757Z,98.69
2023-01-06T09:08:42.739Z,98.53
2023-01-06T09:11:14.854Z,98.13
2023-01-06T09:13:42.962Z,97.67
2023-01-06T09:16:13.716Z,97.44
2023-01-06T09:18:45.143Z,97.17
2023-01-06T09:21:13.225Z,97.68
2023-01-06T09:23:41.303Z,97.86
2023-01-06T09:26:10.110Z,97.84
2023-01-06T09:28:38.178Z,97.84
2023-01-06T09:31:06.435Z,97.54
2023-01-06T09:33:36.072Z,97.61
2023-01-06T09:36:04.873Z,98.15
2023-01-06T09:38:32.958Z,98.14
2023-01-06T09:41:15.163Z,97.73
2023-01-06T09:43:47.277Z,97.79
2023-01-06T09:46:16.736Z,97.31
2023-01-06T09:48:51.824Z,96.18
2023-01-06T09:51:22.342Z,96.80
2023-01-06T09:53:55.572Z,96.75
2023-01-06T09:56:25.597Z,96.68
2023-01-06T09:58:55.923Z,96.27
2023-01-06T10:01:28.748Z,95.81
2023-01-06T10:03:58.568Z,96.53
2023-01-06T10:06:31.364Z,95.82
2023-01-06T10:09:08.603Z,95.87
2023-01-06T10:11:42.706Z,96.15
2023-01-06T10:14:16.437Z,95.97
2023-01-06T10:16:53.989Z,95.54
2023-01-06T10:19:30.515Z,95.56
2023-01-06T10:22:04.294Z,94.97
2023-01-06T10:24:36.373Z,96.12
2023-01-06T10:27:15.156Z,96.08
2023-01-06T10:29:43.709Z,95.84
2023-01-06T10:32:16.535Z,96.39
2023-01-06T10:34:47.672Z,96.07
2023-01-06T10:37:20.959Z,95.69
2023-01-06T10:39:51.870Z,95.71
2023-01-06T10:42:42.238Z,96.04
2023-01-06T10:45:13.279Z,96.02
2023-01-06T10:47:43.037Z,96.20
2023-01-06T10:50:16.828Z,95.60
2023-01-06T10:52:45.625Z,96.08
2023-01-06T10:55:20.629Z,95.60
2023-01-06T10:57:50.248Z,96.04
2023-01-06T11:00:18.981Z,96.32
2023-01-06T11:02:48.528Z,97.21
2023-01-06T11:05:19.081Z,96.94
2023-01-06T11:07:49.193Z,96.07
2023-01-06T11:10:24.279Z,95.98
2023-01-06T11:12:52.652Z,95.92
2023-01-06T11:15:22.508Z,96.26
2023-01-06T11:17:50.769Z,96.17
2023-01-06T11:20:31.757Z,95.51
2023-01-06T11:23:21.225Z,96.11
2023-01-06T11:26:01.652Z,95.67
2023-01-06T11:28:31.004Z,95.97
2023-01-06T11:31:01.853Z,96.48
2023-01-06T11:33:30.947Z,95.95
2023-01-06T11:36:07.187Z,95.53
2023-01-06T11:38:44.977Z,95.82
2023-01-06T11:41:14.517Z,95.32
2023-01-06T11:43:45.611Z,95.96
2023-01-06T11:46:15.051Z,96.43
2023-01-06T11:48:44.969Z,96.36
2023-01-06T11:51:15.007Z,96.10
2023-01-06T11:53:56.582Z,95.79
2023-01-06T11:56:25.562Z,95.08
2023-01-06T11:58:58.107Z,95.20
2023-01-06T12:01:28.449Z,95.39
2023-01-06T12:04:03.156Z,94.52
2023-01-06T12:06:35.008Z,94.65
2023-01-06T12:09:06.542Z,94.81
2023-01-06T12:11:40.977Z,93.98
2023-01-06T12:14:23.583Z,94.00
2023-01-06T12:17:02.166Z,93.16
2023-01-06T12:19:33.966Z,94.36
2023-01-06T12:22:03.788Z,94.01
2023-01-06T12:24:33.674Z,94.49
2023-01-06T12:27:02.741Z,93.90
2023-01-06T12:29:31.804Z,93.79
2023-01-06T12:32:06.582Z,93.33
2023-01-06T12:34:36.687Z,93.46
2023-01-06T12:37:13.913Z,93.59
2023-01-06T12:39:45.937Z,93.10
2023-01-06T12:42:19.719Z,93.54
2023-01-06T12:44:50.996Z,93.18
2023-01-06T12:47:22.834Z,93.28
2023-01-06T12:49:55.117Z,94.52
2023-01-06T12:52:27.371Z,94.90
2023-01-06T12:54:58.116Z,93.98
2023-01-06T12:57:35.572Z,94.75
2023-01-06T13:00:18.668Z,95.99
2023-01-06T13:02:56.018Z,94.31
2023-01-06T13:05:34.942Z,94.30
2023-01-06T13:08:14.256Z,94.36
2023-01-06T13:10:47.158Z,94.60
2023-01-06T13:13:30.041Z,95.58
2023-01-06T13:16:02.080Z,96.19
2023-01-06T13:18:33.792Z,96.63
2023-01-06T13:21:03.822Z,97.30
2023-01-06T13:23:39.021Z,98.45
2023-01-06T13:26:25.340Z,99.99
2023-01-06T13:28:58.545Z,100.00
2023-01-06T13:31:40.945Z,100.00
2023-01-06T13:34:22.124Z,100.00
2023-01-06T13:37:11.367Z,100.00
2023-01-06T13:39:42.757Z,100.00
2023-01-06T13:42:15.943Z,100.00
2023-01-06T13:44:45.401Z,100.00
2023-01-06T13:47:16.517Z,100.00
2023-01-06T13:49:45.172Z,100.00
2023-01-06T13:52:16.889Z,100.00
2023-01-06T13:55:04.801Z,100.00
2023-01-06T13:57:34.907Z,100.00
2023-01-06T14:00:19.500Z,100.00
2023-01-06T14:03:14.845Z,100.00
2023-01-06T14:05:58.873Z,100.00
2023-01-06T14:08:29.352Z,100.00
2023-01-06T14:11:03.290Z,100.00
2023-01-06T14:13:36.198Z,100.00
2023-01-06T14:16:06.949Z,100.00
2023-01-06T14:18:43.228Z,100.00
2023-01-06T14:21:24.387Z,100.00
2023-01-06T14:23:55.174Z,100.00
2023-01-06T14:26:44.301Z,100.00
2023-01-06T14:29:31.329Z,100.00
2023-01-06T14:31:59.162Z,100.00
2023-01-06T14:34:27.523Z,100.00
2023-01-06T14:36:57.086Z,100.00
2023-01-06T14:39:26.836Z,100.00
2023-01-06T14:42:00.696Z,100.00
2023-01-06T14:44:32.212Z,100.00
2023-01-06T14:47:03.054Z,100.00
2023-01-06T14:49:34.044Z,100.00
2023-01-06T14:52:05.061Z,100.00
2023-01-06T14:54:37.556Z,100.00
2023-01-06T14:57:07.735Z,100.00
2023-01-06T14:59:36.166Z,100.00
2023-01-06T15:02:05.323Z,100.00
2023-01-06T15:04:34.992Z,100.00
2023-01-06T15:07:05.966Z,100.00
2023-01-06T15:09:34.612Z,100.00
2023-01-06T15:12:02.840Z,100.00
2023-01-06T15:14:33.712Z,100.00
2023-01-06T15:17:03.633Z,100.00
2023-01-06T15:19:32.133Z,100.00
2023-01-06T15:22:01.279Z,100.00
2023-01-06T15:24:33.067Z,100.00
2023-01-06T15:27:05.546Z,100.00
2023-01-06T15:29:35.778Z,100.00
2023-01-06T15:32:04.272Z,100.00
2023-01-06T15:34:34.848Z,100.00
2023-01-06T15:37:04.185Z,100.00
2023-01-06T15:39:34.072Z,100.00
2023-01-06T15:42:05.581Z,100.00
2023-01-06T15:44:36.235Z,100.00
2023-01-06T15:47:09.454Z,100.00
2023-01-06T15:49:38.820Z,100.00
2023-01-06T15:52:07.616Z,100.00
2023-01-06T15:54:36.879Z,100.00
2023-01-06T15:57:15.789Z,100.00
2023-01-06T15:59:53.810Z,100.00
2023-01-06T16:02:24.341Z,100.00
2023-01-06T16:04:53.054Z,100.00
2023-01-06T16:07:21.607Z,100.00
2023-01-06T16:09:49.990Z,100.00
2023-01-06T16:12:18.819Z,100.00
2023-01-06T16:14:49.305Z,100.00
2023-01-06T16:17:25.024Z,100.00
2023-01-06T16:20:00.882Z,100.00
2023-01-06T16:22:33.962Z,100.00
2023-01-06T16:25:03.748Z,100.00
2023-01-06T16:27:31.951Z,100.00
2023-01-06T16:30:19.304Z,100.00
2023-01-06T16:32:49.256Z,100.00
2023-01-06T16:35:18.604Z,100.00
2023-01-06T16:37:46.611Z,100.00
2023-01-06T16:40:17.995Z,100.00
2023-01-06T16:42:49.899Z,100.00
2023-01-06T16:45:20.477Z,100.00
2023-01-06T16:47:49.779Z,100.00
2023-01-06T16:50:19.824Z,100.00
2023-01-06T16:52:49.341Z,100.00
2023-01-06T16:55:18.394Z,100.00
2023-01-06T16:57:47.727Z,100.00
2023-01-06T17:00:17.116Z,100.00
2023-01-06T17:02:50.332Z,100.00
2023-01-06T17:05:21.411Z,100.00
2023-01-06T17:07:49.800Z,100.00
2023-01-06T17:10:19.875Z,100.00
2023-01-06T17:13:09.349Z,100.00
2023-01-06T17:15:37.719Z,100.00
2023-01-06T17:18:12.518Z,100.00
2023-01-06T17:20:42.328Z,100.00
2023-01-06T17:23:11.271Z,100.00
2023-01-06T17:25:39.533Z,100.00
2023-01-06T17:28:13.847Z,100.00
2023-01-06T17:30:42.099Z,100.00
2023-01-06T17:33:12.529Z,100.00
2023-01-06T17:35:45.866Z,100.00
2023-01-06T17:38:15.792Z,100.00
2023-01-06T17:40:44.014Z,100.00
2023-01-06T17:43:20.126Z,100.00
2023-01-06T17:45:48.382Z,100.00
2023-01-06T17:48:18.122Z,100.00
2023-01-06T17:50:48.701Z,100.00
2023-01-06T17:53:35.620Z,100.00
2023-01-06T17:56:05.179Z,100.00
2023-01-06T17:58:33.437Z,100.00
2023-01-06T18:01:02.012Z,100.00
2023-01-06T18:03:32.790Z,100.00
2023-01-06T18:06:18.627Z,100.00
2023-01-06T18:08:46.928Z,100.00
2023-01-06T18:11:25.720Z,100.00
2023-01-06T18:13:53.932Z,100.00
2023-01-06T18:16:28.110Z,100.00
2023-01-06T18:19:03.558Z,100.00
2023-01-06T18:21:36.614Z,100.00
2023-01-06T18:24:14.499Z,100.00
2023-01-06T18:26:45.302Z,100.00
2023-01-06T18:29:15.989Z,100.00
2023-01-06T18:31:44.708Z,100.00
2023-01-06T18:34:31.842Z,100.00
2023-01-06T18:37:02.297Z,100.00
2023-01-06T18:39:31.528Z,100.00
2023-01-06T18:42:17.652Z,100.00
2023-01-06T18:44:45.907Z,100.00
2023-01-06T18:47:18.122Z,100.00
2023-01-06T18:49:46.388Z,100.00
2023-01-06T18:52:32.935Z,100.00
2023-01-06T18:55:01.802Z,100.00
2023-01-06T18:57:31.971Z,100.00
2023-01-06T19:00:01.350Z,100.00
2023-01-06T19:02:33.738Z,100.00
2023-01-06T19:05:01.669Z,100.00
2023-01-06T19:07:31.325Z,100.00
2023-01-06T19:10:00.190Z,100.00
2023-01-06T19:12:31.481Z,100.00
2023-01-06T19:15:01.032Z,100.00
2023-01-06T19:17:30.946Z,100.00
2023-01-06T19:20:01.646Z,100.00
2023-01-06T19:22:34.628Z,100.00
2023-01-06T19:25:03.630Z,100.00
2023-01-06T19:27:45.761Z,100.00
2023-01-06T19:30:32.102Z,100.00
2023-01-06T19:33:02.618Z,100.00
2023-01-06T19:35:31.268Z,100.00
2023-01-06T19:38:02.826Z,100.00
2023-01-06T19:40:32.162Z,100.00
2023-01-06T19:43:03.713Z,100.00
2023-01-06T19:45:34.260Z,100.00
2023-01-06T19:48:04.036Z,100.00
2023-01-06T19:50:32.616Z,100.00
2023-01-06T19:53:02.213Z,100.00
2023-01-06T19:55:31.190Z,100.00
2023-01-06T19:58:00.705Z,100.00
2023-01-06T20:00:30.288Z,100.00
2023-01-06T20:03:03.274Z,100.00
2023-01-06T20:05:32.855Z,100.00
2023-01-06T20:08:02.529Z,100.00
2023-01-06T20:10:30.582Z,100.00
2023-01-06T20:12:59.247Z,100.00
2023-01-06T20:15:27.325Z,100.00
2023-01-06T20:17:55.669Z,100.00
2023-01-06T20:20:24.900Z,100.00
2023-01-06T20:22:53.408Z,100.00
2023-01-06T20:25:23.886Z,100.00
2023-01-06T20:27:52.258Z,100.00
2023-01-06T20:30:21.329Z,100.00
2023-01-06T20:32:49.517Z,100.00
2023-01-06T20:35:17.826Z,100.00
2023-01-06T20:37:46.774Z,100.00
2023-01-06T20:40:14.715Z,100.00
2023-01-06T20:42:44.313Z,100.00
2023-01-06T20:45:16.634Z,100.00
2023-01-06T20:47:45.163Z,100.00
2023-01-06T20:50:14.595Z,100.00
2023-01-06T20:52:45.715Z,100.00
2023-01-06T20:55:13.560Z,100.00
2023-01-06T20:57:41.798Z,100.00
2023-01-06T21:00:15.830Z,100.00
2023-01-06T21:02:44.089Z,100.00
2023-01-06T21:05:12.434Z,100.00
2023-01-06T21:07:40.634Z,100.00
2023-01-06T21:10:09.066Z,100.00
2023-01-06T21:12:37.367Z,100.00
2023-01-06T21:15:05.561Z,100.00
2023-01-06T21:17:35.233Z,100.00
2023-01-06T21:20:03.320Z,100.00
2023-01-06T21:22:32.102Z,100.00
2023-01-06T21:25:00.352Z,100.00
2023-01-06T21:27:28.554Z,100.00
2023-01-06T21:29:56.677Z,100.00
2023-01-06T21:32:24.858Z,100.00
2023-01-06T21:34:54.193Z,100.00
2023-01-06T21:37:22.599Z,100.00
2023-01-06T21:39:50.466Z,100.00
2023-01-06T21:42:36.210Z,100.00
2023-01-06T21:45:04.149Z,100.00
2023-01-06T21:47:32.423Z,100.00
2023-01-06T21:50:01.922Z,100.00
2023-01-06T21:52:30.536Z,100.00
2023-01-06T21:54:59.201Z,100.00
2023-01-06T21:57:27.383Z,100.00
2023-01-06T21:59:55.388Z,100.00
2023-01-06T22:02:23.692Z,100.00
2023-01-06T22:04:52.548Z,100.00
2023-01-06T22:07:22.579Z,100.00
2023-01-06T22:09:50.727Z,100.00
2023-01-06T22:12:20.022Z,100.00
2023-01-06T22:14:50.068Z,100.00
2023-01-06T22:17:18.860Z,100.00
2023-01-06T22:19:47.156Z,100.00
2023-01-06T22:22:15.736Z,100.00
2023-01-06T22:24:45.365Z,100.00
2023-01-06T22:27:13.512Z,100.00
2023-01-06T22:29:41.428Z,100.00
2023-01-06T22:32:11.655Z,100.00
2023-01-06T22:34:40.756Z,100.00
2023-01-06T22:37:09.274Z,100.00
2023-01-06T22:39:39.844Z,100.00
2023-01-06T22:42:09.402Z,100.00
2023-01-06T22:44:37.518Z,100.00
2023-01-06T22:47:06.142Z,100.00
2023-01-06T22:49:34.009Z,100.00
2023-01-06T22:52:02.719Z,100.00
2023-01-06T22:54:30.671Z,100.00
2023-01-06T22:56:58.796Z,100.00
2023-01-06T22:59:28.124Z,100.00
2023-01-06T23:01:56.460Z,100.00
2023-01-06T23:04:24.570Z,100.00
2023-01-06T23:06:52.941Z,100.00
2023-01-06T23:09:21.044Z,100.00
2023-01-06T23:11:49.504Z,100.00
2023-01-06T23:14:17.624Z,100.00
2023-01-06T23:16:47.468Z,100.00
2023-01-06T23:19:16.343Z,100.00
2023-01-06T23:21:45.411Z,100.00
2023-01-06T23:24:13.793Z,100.00
2023-01-06T23:26:43.455Z,100.00
2023-01-06T23:29:11.936Z,100.00
2023-01-06T23:31:41.544Z,100.00
2023-01-06T23:34:12.401Z,100.00
2023-01-06T23:36:40.829Z,100.00
2023-01-06T23:39:09.826Z,100.00
2023-01-06T23:41:38.921Z,100.00
2023-01-06T23:44:09.280Z,100.00
2023-01-06T23:46:38.675Z,100.00
2023-01-06T23:49:07.438Z,100.00
2023-01-06T23:51:37.233Z,100.00
2023-01-06T23:54:06.245Z,100.00
2023-01-06T23:56:35.307Z,100.00
2023-01-06T23:59:04.315Z,100.00
